Time;durP1;ratioP1;P1;durP2;ratioP2;P2;SDS_P1;SDS_P2;PMS_P1;PMS_P2;Temp;Humidity;BMP_temperature;BMP_pressure;BME280_temperature;BME280_humidity;BME280_pressure;Samples;Min_cycle;Max_cycle;Signal;HPM_P1;HPM_P2
2022/09/10 00:01:18;;;;;;;1.15;0.75;;;13.90;99.90;;;13.58;100.00;97102.41;5007931;28;20048;-43
2022/09/10 00:03:45;;;;;;;3.20;0.93;;;13.90;99.90;;;13.58;100.00;97093.63;5004832;28;21876;-41
2022/09/10 00:06:11;;;;;;;2.10;0.68;;;13.90;99.90;;;13.52;100.00;97076.25;5005450;28;20358;-42
2022/09/10 00:08:38;;;;;;;1.27;0.70;;;13.90;99.90;;;13.55;100.00;97087.53;5018310;28;20064;-42
2022/09/10 00:11:09;;;;;;;4.40;1.00;;;13.80;99.90;;;13.54;100.00;97085.81;5011998;28;20025;-42
2022/09/10 00:13:38;;;;;;;1.85;0.75;;;13.80;99.90;;;13.52;100.00;97081.56;5007139;28;20037;-41
2022/09/10 00:16:09;;;;;;;2.53;0.80;;;13.80;99.90;;;13.52;100.00;97071.81;5006323;28;20034;-42
2022/09/10 00:18:37;;;;;;;2.03;0.93;;;13.80;99.90;;;13.38;100.00;97050.50;5014054;28;20046;-41
2022/09/10 00:21:09;;;;;;;2.80;0.90;;;13.80;99.90;;;13.52;100.00;97073.59;5010850;28;20148;-42
2022/09/10 00:23:36;;;;;;;1.25;0.70;;;13.80;99.90;;;13.50;100.00;97071.03;5009702;28;20029;-43
2022/09/10 00:26:33;;;;;;;1.52;0.50;;;13.80;99.90;;;13.48;100.00;97067.63;5009947;28;20107;-41
2022/09/10 00:28:59;;;;;;;1.25;0.65;;;13.80;99.90;;;13.48;100.00;97075.56;5010273;28;20057;-44
2022/09/10 00:31:26;;;;;;;4.78;0.90;;;13.80;99.90;;;13.47;100.00;97073.00;5011101;28;20460;-43
2022/09/10 00:33:53;;;;;;;3.03;0.60;;;13.80;99.90;;;13.45;100.00;97074.88;5029107;28;20072;-43
2022/09/10 00:36:26;;;;;;;4.07;0.63;;;13.80;99.90;;;13.46;100.00;97082.75;4990002;28;20040;-44
2022/09/10 00:38:54;;;;;;;0.80;0.50;;;13.80;99.90;;;13.44;100.00;97081.09;5002978;28;20037;-42
2022/09/10 00:41:22;;;;;;;1.25;0.60;;;13.80;99.90;;;13.44;100.00;97078.44;5000408;28;20030;-42
2022/09/10 00:43:51;;;;;;;3.85;0.50;;;13.80;99.90;;;13.44;100.00;97079.31;5009818;28;20075;-43
2022/09/10 00:46:44;;;;;;;1.58;0.63;;;13.80;99.90;;;13.44;100.00;97081.09;5010047;28;20040;-42
2022/09/10 00:49:33;;;;;;;1.25;0.55;;;13.80;99.90;;;13.45;100.00;97081.03;5009205;28;20116;-42
2022/09/10 00:52:00;;;;;;;0.80;0.40;;;13.80;99.90;;;13.44;100.00;97074.03;5006201;28;20033;-42
2022/09/10 00:54:30;;;;;;;1.63;0.70;;;13.80;99.90;;;13.49;100.00;97079.06;5010316;28;20041;-43
2022/09/10 00:57:10;;;;;;;6.95;0.70;;;13.80;99.90;;;13.47;100.00;97075.66;5009011;28;20083;-41
2022/09/10 00:59:35;;;;;;;0.95;0.50;;;13.80;99.90;;;13.45;100.00;97082.81;5011513;28;20036;-42
2022/09/10 01:02:02;;;;;;;0.93;0.55;;;13.80;99.90;;;13.46;100.00;97079.22;5009630;28;20018;-42
2022/09/10 01:04:28;;;;;;;1.48;0.70;;;13.80;99.90;;;13.43;100.00;97069.66;5010844;28;20670;-42
2022/09/10 01:06:54;;;;;;;2.80;0.45;;;13.70;99.90;;;13.44;100.00;97074.03;5005199;28;20026;-42
2022/09/10 01:09:22;;;;;;;1.55;0.70;;;13.70;99.90;;;13.43;100.00;97082.91;5008838;28;20554;-43
2022/09/10 01:12:04;;;;;;;2.28;0.68;;;13.70;99.90;;;13.41;100.00;97086.59;5008201;28;20259;-42
2022/09/10 01:15:20;;;;;;;1.75;0.65;;;13.70;99.90;;;13.38;100.00;97081.44;5010555;28;20032;-41
2022/09/10 01:17:56;;;;;;;0.95;0.55;;;13.70;99.90;;;13.34;100.00;97080.75;5008505;28;20592;-41
2022/09/10 01:21:03;;;;;;;1.17;0.60;;;13.70;99.90;;;13.28;100.00;97078.38;5007061;28;20128;-41
2022/09/10 01:23:53;;;;;;;3.83;0.77;;;13.60;99.90;;;13.26;100.00;97080.25;5010488;28;20124;-41
2022/09/10 01:26:53;;;;;;;0.82;0.50;;;13.60;99.90;;;13.26;100.00;97077.59;5011839;28;20120;-41
2022/09/10 01:29:34;;;;;;;4.55;0.63;;;13.50;99.90;;;13.25;100.00;97084.69;5012212;28;20545;-41
2022/09/10 01:32:13;;;;;;;2.25;0.40;;;13.60;99.90;;;13.27;100.00;97081.97;5006632;28;20026;-41
2022/09/10 01:34:49;;;;;;;2.47;0.63;;;13.60;99.90;;;13.27;100.00;97089.91;5008644;28;20029;-41
2022/09/10 01:37:22;;;;;;;2.35;0.70;;;13.60;99.90;;;13.25;100.00;97092.66;5006460;28;20026;-43
2022/09/10 01:39:51;;;;;;;1.30;0.63;;;13.60;99.90;;;13.15;100.00;97081.69;5012502;28;20061;-41
2022/09/10 01:42:17;;;;;;;2.20;0.70;;;13.50;99.90;;;13.16;100.00;97086.03;5013976;28;20036;-41
2022/09/10 01:44:49;;;;;;;3.25;0.60;;;13.50;99.90;;;13.14;100.00;97081.78;5014555;28;20038;-41
2022/09/10 01:47:29;;;;;;;;;;;13.50;99.90;;;13.11;100.00;97077.47;5015560;28;20120;-41
2022/09/10 01:50:23;;;;;;;0.70;0.60;;;13.40;99.90;;;13.09;100.00;97071.41;5014263;28;19921;-41
2022/09/10 01:53:29;;;;;;;1.42;0.60;;;13.40;99.90;;;13.07;100.00;97073.28;4994589;28;20397;-42
2022/09/10 01:56:10;;;;;;;0.68;0.40;;;13.40;99.90;;;13.06;100.00;97068.91;5014459;28;20331;-41
2022/09/10 01:58:39;;;;;;;1.40;0.60;;;13.40;99.90;;;13.01;100.00;97057.72;5013078;28;20065;-42
2022/09/10 02:01:24;;;;;;;1.48;0.50;;;13.40;99.90;;;13.05;100.00;97067.22;5012042;28;20460;-42
2022/09/10 02:03:56;;;;;;;0.82;0.60;;;13.40;99.90;;;13.06;100.00;97062.78;5013357;28;20033;-41
2022/09/10 02:06:27;;;;;;;0.95;0.63;;;13.40;99.90;;;13.11;100.00;97072.19;5015184;28;20122;-42
2022/09/10 02:08:55;;;;;;;2.35;0.50;;;13.40;99.90;;;13.10;100.00;97065.19;5008167;28;20109;-43
2022/09/10 02:11:21;;;;;;;1.35;0.60;;;13.50;99.90;;;13.15;100.00;97070.22;5008764;28;20034;-42
2022/09/10 02:13:47;;;;;;;2.13;0.73;;;13.50;99.90;;;13.13;100.00;97066.81;5012307;28;20061;-41
2022/09/10 02:16:23;;;;;;;1.63;0.60;;;13.50;99.90;;;13.20;100.00;97070.84;5009094;28;20041;-41
2022/09/10 02:18:48;;;;;;;1.60;0.70;;;13.50;99.90;;;13.21;100.00;97066.41;5005035;28;20038;-42
2022/09/10 02:21:15;;;;;;;2.88;0.60;;;13.50;99.90;;;13.17;100.00;97056.00;5007717;28;20029;-42
2022/09/10 02:23:49;;;;;;;1.48;0.70;;;13.50;99.90;;;13.19;100.00;97069.16;5005510;28;20104;-42
2022/09/10 02:26:15;;;;;;;3.10;0.70;;;13.50;99.90;;;13.17;100.00;97063.94;5009124;28;20038;-44
2022/09/10 02:28:48;;;;;;;1.40;0.70;;;13.50;99.90;;;13.16;100.00;97067.50;5002424;28;20073;-42
2022/09/10 02:31:14;;;;;;;1.92;0.80;;;13.50;99.90;;;13.15;100.00;97065.81;5010156;28;20449;-42
2022/09/10 02:33:42;;;;;;;3.38;0.70;;;13.50;99.90;;;13.09;100.00;97055.53;5013635;28;20029;-41
2022/09/10 02:36:07;;;;;;;2.53;0.70;;;13.50;99.90;;;13.06;100.00;97052.19;5012547;28;20041;-39
2022/09/10 02:38:37;;;;;;;1.40;0.60;;;13.50;99.90;;;13.13;100.00;97064.16;5013603;28;20033;-42
2022/09/10 02:41:02;;;;;;;1.60;0.60;;;13.50;99.90;;;13.13;100.00;97058.88;5012037;28;20029;-42
2022/09/10 02:43:28;;;;;;;2.22;0.70;;;13.40;99.90;;;13.13;100.00;97059.72;5003889;28;20514;-41
2022/09/10 02:45:57;;;;;;;1.65;0.77;;;13.40;99.90;;;13.09;100.00;97052.88;5000656;28;20044;-42
2022/09/10 02:48:25;;;;;;;2.13;0.90;;;13.40;99.90;;;13.15;100.00;97057.00;5013353;28;20033;-43
2022/09/10 02:50:52;;;;;;;3.60;0.80;;;13.50;99.90;;;13.15;100.00;97055.22;5009021;28;20285;-42
2022/09/10 02:53:19;;;;;;;1.38;0.55;;;13.50;99.90;;;13.22;100.00;97058.38;5011849;28;20113;-41
2022/09/10 02:55:46;;;;;;;1.20;0.73;;;13.50;99.90;;;13.18;100.00;97052.38;5007500;28;20517;-42
2022/09/10 02:58:14;;;;;;;1.98;0.70;;;13.50;99.90;;;13.17;100.00;97048.03;5011573;28;20034;-42
2022/09/10 03:00:41;;;;;;;1.67;0.80;;;13.50;99.90;;;13.24;100.00;97059.16;5005682;28;20116;-42
2022/09/10 03:03:07;;;;;;;2.95;0.70;;;13.60;99.90;;;13.26;100.00;97056.41;5009763;28;20033;-42
2022/09/10 03:05:34;;;;;;;1.83;0.80;;;13.60;99.90;;;13.25;100.00;97052.94;5008544;28;20056;-43
2022/09/10 03:08:00;;;;;;;1.55;0.63;;;13.60;99.90;;;13.28;100.00;97049.25;5010103;28;20489;-42
2022/09/10 03:10:25;;;;;;;3.22;0.65;;;13.60;99.90;;;13.28;100.00;97052.78;5011412;28;20416;-43
2022/09/10 03:12:52;;;;;;;1.08;0.60;;;13.60;99.90;;;13.29;100.00;97050.97;5011627;28;20920;-41
2022/09/10 03:15:19;;;;;;;4.30;0.80;;;13.60;99.90;;;13.29;100.00;97050.97;5010846;28;20064;-43
2022/09/10 03:17:46;;;;;;;0.60;0.60;;;13.60;99.90;;;13.29;100.00;97046.53;5010205;28;20064;-43
2022/09/10 03:20:12;;;;;;;1.20;0.70;;;13.60;99.90;;;13.30;100.00;97055.34;5012234;28;20041;-42
2022/09/10 03:22:38;;;;;;;1.60;0.80;;;13.60;99.90;;;13.30;100.00;97050.03;5010144;28;20056;-42
2022/09/10 03:25:05;;;;;;;1.60;0.68;;;13.60;99.90;;;13.31;100.00;97044.66;5009897;28;20478;-43
2022/09/10 03:27:31;;;;;;;1.00;0.70;;;13.60;99.90;;;13.27;100.00;97039.59;5013514;28;20540;-42
2022/09/10 03:29:57;;;;;;;1.42;0.70;;;13.60;99.90;;;13.30;100.00;97045.59;5008217;28;20037;-41
2022/09/10 03:32:23;;;;;;;0.47;0.47;;;13.60;99.90;;;13.29;100.00;97048.31;5008822;28;20040;-44
2022/09/10 03:34:49;;;;;;;3.00;0.70;;;13.60;99.90;;;13.34;100.00;97055.09;5010171;28;20124;-42
2022/09/10 03:37:15;;;;;;;0.70;0.70;;;13.60;99.90;;;13.35;100.00;97053.31;5015850;28;20021;-42
2022/09/10 03:39:41;;;;;;;1.27;0.90;;;13.60;99.90;;;13.33;100.00;97053.41;5013456;28;20486;-42
2022/09/10 03:42:07;;;;;;;0.98;0.77;;;13.60;99.90;;;13.31;100.00;97052.63;5014360;28;20537;-43
2022/09/10 03:44:33;;;;;;;1.75;0.80;;;13.60;99.90;;;13.31;100.00;97049.13;5015558;28;20032;-42
2022/09/10 03:46:59;;;;;;;0.60;0.60;;;13.60;99.90;;;13.30;100.00;97044.75;5013816;28;20022;-42
2022/09/10 03:49:26;;;;;;;2.00;0.75;;;13.60;99.90;;;13.28;100.00;97041.28;5019632;28;20041;-42
2022/09/10 03:51:52;;;;;;;2.03;0.70;;;13.60;99.90;;;13.26;100.00;97043.19;5015510;28;20040;-43
2022/09/10 03:54:18;;;;;;;2.50;0.60;;;13.60;99.90;;;13.09;100.00;97020.25;5014505;28;20116;-45
2022/09/10 03:56:44;;;;;;;2.15;0.90;;;13.50;99.90;;;13.18;100.00;97039.16;5012590;28;20046;-42
2022/09/10 03:59:12;;;;;;;1.60;0.73;;;13.50;99.90;;;13.17;100.00;97040.09;5011345;28;20096;-43
2022/09/10 04:01:39;;;;;;;1.70;0.70;;;13.50;99.90;;;13.22;100.00;97046.94;5013377;28;20030;-41
2022/09/10 04:04:05;;;;;;;1.35;0.68;;;13.50;99.90;;;13.24;100.00;97053.00;5011726;28;20054;-44
2022/09/10 04:06:34;;;;;;;2.58;0.60;;;13.50;99.90;;;13.25;100.00;97046.78;5005308;28;20112;-42
2022/09/10 04:09:00;;;;;;;3.80;1.02;;;13.50;99.90;;;13.26;100.00;97048.47;5009434;28;20406;-43
2022/09/10 04:11:27;;;;;;;1.15;0.80;;;13.60;99.90;;;13.28;100.00;97050.13;5007625;28;20034;-42
2022/09/10 04:13:54;;;;;;;2.35;0.70;;;13.60;99.90;;;13.27;100.00;97043.09;5012384;28;20249;-42
2022/09/10 04:16:22;;;;;;;1.63;0.80;;;13.60;99.90;;;13.27;100.00;97044.91;5013941;28;20045;-43
2022/09/10 04:18:48;;;;;;;1.92;0.68;;;13.60;99.90;;;13.26;100.00;97038.75;5014803;28;20084;-43
2022/09/10 04:21:14;;;;;;;1.88;0.60;;;13.60;99.90;;;13.26;100.00;97046.69;5014734;28;20038;-43
2022/09/10 04:23:40;;;;;;;3.03;0.88;;;13.60;99.90;;;13.22;100.00;97050.44;5013248;28;20044;-42
2022/09/10 04:26:19;;;;;;;0.98;0.60;;;13.50;99.90;;;13.14;100.00;97042.91;5015352;28;20042;-43
2022/09/10 04:28:45;;;;;;;0.95;0.60;;;13.50;99.90;;;13.07;100.00;97049.47;5013884;28;20094;-41
2022/09/10 04:31:11;;;;;;;2.72;0.60;;;13.40;99.90;;;13.03;100.00;97045.28;5009734;28;20041;-43
2022/09/10 04:33:37;;;;;;;1.25;0.73;;;13.30;99.90;;;12.98;100.00;97047.28;5015189;28;20041;-44
2022/09/10 04:36:05;;;;;;;0.65;0.65;;;13.30;99.90;;;12.95;100.00;97047.44;5010502;28;20038;-44
2022/09/10 04:38:31;;;;;;;2.00;0.80;;;13.30;99.90;;;12.87;100.00;97041.72;5007450;28;20408;-44
2022/09/10 04:40:59;;;;;;;2.80;0.70;;;13.30;99.90;;;12.93;100.00;97057.25;5006746;28;20108;-44
2022/09/10 04:43:26;;;;;;;1.48;0.73;;;13.20;99.90;;;12.94;100.00;97062.47;5002401;28;20536;-43
2022/09/10 04:45:54;;;;;;;1.52;0.70;;;13.20;99.90;;;12.95;100.00;97056.22;5006437;28;20056;-42
2022/09/10 04:48:21;;;;;;;1.00;0.70;;;13.30;99.90;;;12.96;100.00;97054.47;5010552;28;20030;-42
2022/09/10 04:50:47;;;;;;;1.50;0.80;;;13.30;99.90;;;12.96;100.00;97060.59;5009943;28;20038;-43
2022/09/10 04:53:13;;;;;;;4.18;0.57;;;13.30;99.90;;;12.98;100.00;97064.03;5008019;28;20053;-43
2022/09/10 04:55:42;;;;;;;1.38;0.75;;;13.40;99.90;;;12.98;100.00;97068.47;5007483;28;20151;-43
2022/09/10 04:58:08;;;;;;;1.40;0.77;;;13.30;99.90;;;12.98;100.00;97063.19;5009697;28;20030;-41
2022/09/10 05:00:34;;;;;;;1.20;0.60;;;13.30;99.90;;;13.02;100.00;97070.00;5007552;28;20080;-44
2022/09/10 05:02:59;;;;;;;1.83;0.80;;;13.40;99.90;;;13.04;100.00;97070.78;5002628;28;20160;-43
2022/09/10 05:05:25;;;;;;;0.82;0.57;;;13.40;99.90;;;13.03;100.00;97071.75;5010659;28;20107;-43
2022/09/10 05:07:52;;;;;;;1.10;0.70;;;13.40;99.90;;;13.04;100.00;97065.50;5009317;28;20457;-43
2022/09/10 05:10:20;;;;;;;1.63;0.82;;;13.40;99.90;;;13.09;100.00;97071.41;5009750;28;20086;-43
2022/09/10 05:12:47;;;;;;;0.80;0.80;;;13.40;99.90;;;13.13;100.00;97074.75;5007217;28;20052;-43
2022/09/10 05:15:12;;;;;;;1.27;0.70;;;13.50;99.90;;;13.15;100.00;97072.88;5008047;28;20083;-42
2022/09/10 05:17:38;;;;;;;2.67;0.85;;;13.50;99.90;;;13.16;100.00;97070.16;5010214;28;20041;-44
2022/09/10 05:20:06;;;;;;;1.25;0.73;;;13.50;99.90;;;13.13;100.00;97074.75;5007422;28;20030;-42
2022/09/10 05:22:35;;;;;;;1.25;0.55;;;13.50;99.90;;;13.20;100.00;97081.44;5005875;28;20091;-45
2022/09/10 05:25:02;;;;;;;1.40;0.65;;;13.50;99.90;;;13.22;100.00;97084.00;5007984;28;20036;-44
2022/09/10 05:27:28;;;;;;;0.85;0.50;;;13.50;99.90;;;13.20;100.00;97083.25;5008320;28;20117;-43
2022/09/10 05:29:54;;;;;;;1.30;0.80;;;13.60;99.90;;;13.24;100.00;97082.13;5008645;28;20523;-43
2022/09/10 05:32:19;;;;;;;1.55;0.60;;;13.60;99.90;;;13.29;100.00;97080.09;5004104;28;20447;-46
2022/09/10 05:34:48;;;;;;;1.15;0.60;;;13.60;99.90;;;13.31;100.00;97078.25;5006869;28;20303;-44
2022/09/10 05:37:14;;;;;;;0.98;0.50;;;13.60;99.90;;;13.31;100.00;97073.81;5010224;28;20045;-44
2022/09/10 05:39:40;;;;;;;0.63;0.50;;;13.70;99.90;;;13.40;100.00;97076.91;5008480;28;20121;-43
2022/09/10 05:42:06;;;;;;;0.77;0.50;;;13.70;99.90;;;13.43;100.00;97079.41;5005921;28;20034;-46
2022/09/10 05:44:33;;;;;;;1.05;0.50;;;13.80;99.90;;;13.44;100.00;97079.31;5012916;28;20389;-44
2022/09/10 05:46:58;;;;;;;2.13;0.80;;;13.80;99.90;;;13.45;100.00;97074.88;5011206;28;20025;-43
2022/09/10 05:49:25;;;;;;;0.98;0.60;;;13.70;99.90;;;13.45;100.00;97081.03;5012942;28;20034;-43
2022/09/10 05:51:51;;;;;;;2.20;0.60;;;13.70;99.90;;;13.44;100.00;97079.31;5006995;28;20087;-42
2022/09/10 05:54:16;;;;;;;1.52;0.50;;;13.70;99.90;;;13.43;100.00;97077.59;5012578;28;20025;-44
2022/09/10 05:56:42;;;;;;;0.60;0.50;;;13.70;99.90;;;13.45;100.00;97078.38;5004945;28;20068;-43
2022/09/10 05:59:09;;;;;;;1.20;0.60;;;13.80;99.90;;;13.48;100.00;97075.56;5012527;28;20397;-43
2022/09/10 06:01:36;;;;;;;0.40;0.40;;;13.80;99.90;;;13.51;100.00;97079.84;5011597;28;20022;-42
2022/09/10 06:04:03;;;;;;;1.45;0.60;;;13.80;99.90;;;13.48;100.00;97075.56;5006922;28;20031;-42
2022/09/10 06:06:28;;;;;;;1.10;0.60;;;13.80;99.90;;;13.53;100.00;97089.44;5009034;28;20104;-42
2022/09/10 06:08:55;;;;;;;1.38;0.70;;;13.90;99.90;;;13.55;100.00;97090.19;5006955;28;20369;-42
2022/09/10 06:11:22;;;;;;;2.38;0.50;;;13.90;99.90;;;13.58;100.00;97086.50;4998525;28;20422;-43
2022/09/10 06:13:48;;;;;;;2.53;0.80;;;13.90;99.90;;;13.55;100.00;97079.59;4998715;28;20029;-42
2022/09/10 06:16:14;;;;;;;0.88;0.70;;;13.90;99.90;;;13.62;100.00;97093.38;5006009;28;20100;-43
2022/09/10 06:18:40;;;;;;;3.17;0.80;;;13.90;99.90;;;13.66;100.00;97091.41;5004241;28;20092;-43
2022/09/10 06:21:18;;;;;;;0.70;0.70;;;14.00;99.90;;;13.73;100.00;97098.94;5005550;28;20148;-43
2022/09/10 06:23:45;;;;;;;2.22;0.70;;;14.00;99.90;;;13.78;100.00;97093.38;5003273;28;20053;-42
2022/09/10 06:26:15;;;;;;;2.50;0.77;;;14.10;99.90;;;13.86;100.00;97091.16;5008652;28;20285;-41
2022/09/10 06:28:42;;;;;;;1.30;0.70;;;14.20;99.90;;;13.91;100.00;97091.78;5007217;28;20036;-41
2022/09/10 06:31:13;;;;;;;3.00;0.80;;;14.30;99.90;;;13.97;100.00;97093.22;5008298;28;20091;-43
2022/09/10 06:33:38;;;;;;;0.70;0.57;;;14.30;99.90;;;14.02;100.00;97098.28;5012466;28;20381;-46
2022/09/10 06:36:04;;;;;;;1.85;0.85;;;14.40;99.90;;;14.10;100.00;97090.75;5008855;28;20042;-42
2022/09/10 06:38:35;;;;;;;0.75;0.43;;;14.40;99.90;;;14.22;100.00;97094.50;5009672;28;20025;-43
2022/09/10 06:41:05;;;;;;;2.05;0.88;;;14.50;99.90;;;14.31;100.00;97092.19;5008230;28;20094;-44
2022/09/10 06:43:35;;;;;;;1.73;0.52;;;14.70;99.90;;;14.42;100.00;97098.69;5009217;28;20017;-45
2022/09/10 06:46:08;;;;;;;0.65;0.55;;;14.80;99.90;;;14.45;100.00;97107.31;5007063;28;20044;-44
2022/09/10 06:48:41;;;;;;;1.75;0.68;;;14.80;99.90;;;14.52;100.00;97110.47;5007970;28;20551;-46
2022/09/10 06:51:09;;;;;;;2.17;0.60;;;14.90;99.90;;;14.52;100.00;97113.97;5006116;28;20045;-43
2022/09/10 06:53:36;;;;;;;3.88;0.80;;;14.90;99.90;;;14.56;100.00;97108.50;5008124;28;20037;-42
2022/09/10 06:56:04;;;;;;;0.63;0.57;;;14.90;99.90;;;14.62;100.00;97116.13;5007188;28;20025;-45
2022/09/10 06:58:33;;;;;;;1.92;0.60;;;15.00;99.90;;;14.66;100.00;97110.56;5007402;28;20040;-43
2022/09/10 07:01:16;;;;;;;3.20;0.60;;;15.10;99.90;;;14.79;100.00;97112.53;4995277;28;20033;-43
2022/09/10 07:03:42;;;;;;;2.10;1.00;;;15.20;99.90;;;14.90;100.00;97123.34;4998519;28;20030;-44
2022/09/10 07:06:12;;;;;;;0.55;0.40;;;15.20;99.90;;;14.95;100.00;97129.25;4998100;28;20029;-43
2022/09/10 07:08:38;;;;;;;2.28;0.60;;;15.30;99.90;;;14.97;100.00;97121.19;5006844;28;20041;-42
2022/09/10 07:11:08;;;;;;;0.70;0.50;;;15.30;99.90;;;15.06;100.00;97141.91;4999264;28;20132;-45
2022/09/10 07:13:34;;;;;;;0.55;0.50;;;15.40;99.90;;;15.00;100.00;97110.38;5003635;28;20056;-42
2022/09/10 07:16:00;;;;;;;1.13;0.52;;;15.40;99.90;;;15.21;100.00;97132.16;5006102;28;20208;-42
2022/09/10 07:18:27;;;;;;;1.67;0.50;;;15.50;99.90;;;15.30;100.00;97142.22;5003565;28;20044;-43
2022/09/10 07:20:53;;;;;;;1.40;0.60;;;15.60;99.90;;;15.44;100.00;97147.56;5002770;28;20033;-45
2022/09/10 07:23:20;;;;;;;1.00;0.57;;;15.70;99.90;;;15.52;100.00;97147.09;5004386;28;20116;-47
2022/09/10 07:25:46;;;;;;;0.77;0.57;;;15.80;99.90;;;15.58;100.00;97152.03;5001128;28;20535;-45
2022/09/10 07:28:16;;;;;;;3.20;0.60;;;15.90;99.90;;;15.62;100.00;97161.53;4999671;28;20033;-45
2022/09/10 07:30:43;;;;;;;1.20;0.40;;;16.00;99.90;;;15.72;100.00;97153.88;5020655;28;20064;-45
2022/09/10 07:33:12;;;;;;;1.42;0.60;;;16.10;99.90;;;15.68;100.00;97156.78;5010685;28;20124;-43
2022/09/10 07:35:38;;;;;;;2.00;0.50;;;16.10;99.90;;;15.78;100.00;97157.97;5011506;28;20033;-46
2022/09/10 07:38:06;;;;;;;1.33;0.60;;;16.20;99.90;;;15.91;100.00;97166.03;5005256;28;20038;-44
2022/09/10 07:40:32;;;;;;;3.92;0.55;;;16.20;99.90;;;16.01;100.00;97168.03;5006178;28;20061;-44
2022/09/10 07:42:58;;;;;;;0.80;0.40;;;16.30;99.90;;;16.09;100.00;97172.84;5020025;28;20075;-43
2022/09/10 07:45:26;;;;;;;3.53;0.60;;;16.40;99.90;;;16.22;100.00;97181.78;5002418;28;20679;-44
2022/09/10 07:47:52;;;;;;;1.27;0.50;;;16.50;99.90;;;16.32;100.00;97171.41;5001359;28;20068;-43
2022/09/10 07:50:18;;;;;;;1.85;0.50;;;16.60;99.90;;;16.38;100.00;97180.81;5003737;28;20044;-46
2022/09/10 07:52:44;;;;;;;2.40;0.60;;;16.70;99.90;;;16.41;100.00;97183.28;5006503;28;20029;-43
2022/09/10 07:55:10;;;;;;;1.15;0.50;;;16.70;99.90;;;16.44;100.00;97185.75;5007026;28;20120;-42
2022/09/10 07:57:37;;;;;;;0.68;0.60;;;16.70;99.90;;;16.54;100.00;97175.34;5001240;28;20029;-43
2022/09/10 08:00:13;;;;;;;0.98;0.60;;;16.80;99.90;;;16.78;100.00;97179.09;5010010;28;20481;-42
2022/09/10 08:02:43;;;;;;;3.90;0.60;;;17.00;99.90;;;17.01;100.00;97183.88;5012877;28;20033;-46
2022/09/10 08:05:10;;;;;;;1.10;0.55;;;17.30;99.90;;;17.17;100.00;97187.22;5014033;28;20061;-46
2022/09/10 08:07:37;;;;;;;1.92;0.60;;;17.50;99.90;;;17.24;100.00;97187.69;5011759;28;20100;-46
2022/09/10 08:10:06;;;;;;;0.85;0.50;;;17.60;99.90;;;17.08;100.00;97179.84;5015633;28;20037;-43
2022/09/10 08:12:35;;;;;;;0.60;0.50;;;17.50;99.90;;;16.99;100.00;97186.63;5004776;28;20037;-45
2022/09/10 08:15:01;;;;;;;0.68;0.40;;;17.30;99.90;;;16.90;100.00;97196.09;5000702;28;20497;-47
2022/09/10 08:17:30;;;;;;;0.77;0.47;;;17.20;99.90;;;16.77;100.00;97176.53;4997129;28;20049;-46
2022/09/10 08:19:57;;;;;;;1.50;0.60;;;17.10;99.90;;;16.83;100.00;97204.56;5005061;28;20041;-45
2022/09/10 08:22:23;;;;;;;1.27;0.50;;;17.10;99.90;;;16.83;100.00;97201.91;5008737;28;20056;-44
2022/09/10 08:24:49;;;;;;;4.38;0.60;;;17.00;99.90;;;16.97;100.00;97199.22;5006617;28;20730;-46
2022/09/10 08:27:16;;;;;;;1.10;0.50;;;17.10;99.90;;;17.10;100.00;97200.13;5002558;28;20439;-44
2022/09/10 08:29:42;;;;;;;0.90;0.40;;;17.30;99.90;;;17.19;100.00;97195.97;5011641;28;20622;-45
2022/09/10 08:32:11;;;;;;;1.77;0.50;;;17.40;99.90;;;17.33;100.00;97201.22;5015938;28;20040;-46
2022/09/10 08:34:36;;;;;;;0.90;0.40;;;17.60;99.90;;;17.49;100.00;97198.38;5010074;28;20080;-45
2022/09/10 08:37:02;;;;;;;3.25;0.65;;;17.70;99.90;;;17.63;100.00;97202.78;5017506;22;20042;-50
2022/09/10 08:39:29;;;;;;;0.47;0.43;;;17.80;99.90;;;17.68;100.00;97200.66;4967672;28;20138;-48
2022/09/10 08:42:10;;;;;;;1.98;0.65;;;17.90;99.90;;;17.87;100.00;97210.06;4974146;28;20152;-46
2022/09/10 08:44:58;;;;;;;2.63;0.47;;;18.10;99.90;;;17.95;98.91;97201.56;4978602;28;20034;-48
2022/09/10 08:47:52;;;;;;;1.55;0.57;;;18.20;99.90;;;17.92;99.79;97207.94;4973184;28;20037;-46
2022/09/10 08:50:46;;;;;;;1.75;0.60;;;18.20;99.90;;;17.82;98.37;97204.16;4962613;28;20041;-45
2022/09/10 08:53:27;;;;;;;2.60;0.52;;;18.10;99.90;;;17.83;99.98;97212.06;4977517;28;20042;-47
2022/09/10 08:56:06;;;;;;;3.03;0.60;;;18.10;99.90;;;17.77;96.05;97214.31;4969728;28;20034;-46
2022/09/10 08:58:56;;;;;;;1.85;0.77;;;18.10;99.90;;;17.77;99.33;97203.66;4968286;28;20084;-46
2022/09/10 09:01:50;;;;;;;0.90;0.40;;;18.00;99.90;;;17.78;100.00;97206.19;4975823;28;20030;-47
2022/09/10 09:04:31;;;;;;;1.67;0.60;;;18.10;99.90;;;17.88;99.27;97207.28;4956460;28;20042;-48
2022/09/10 09:07:03;;;;;;;1.65;0.50;;;18.10;99.90;;;17.91;99.51;97206.25;4979055;28;20022;-47
2022/09/10 09:09:29;;;;;;;1.03;0.93;;;18.30;99.90;;;17.96;98.76;97208.56;4978106;28;20038;-47
2022/09/10 09:12:25;;;;;;;1.95;0.50;;;18.30;99.90;;;18.03;97.37;97208.03;4974147;28;20026;-46
2022/09/10 09:15:18;;;;;;;0.68;0.35;;;18.40;99.90;;;18.18;96.26;97207.91;4973694;28;20113;-47
2022/09/10 09:18:21;;;;;;;1.30;0.60;;;18.50;99.90;;;18.44;97.58;97206.06;4969582;28;20362;-47
2022/09/10 09:20:55;;;;;;;;;;;18.70;99.90;;;18.76;93.38;97211.75;4951642;28;20038;-49
2022/09/10 09:23:32;;;;;;;2.20;0.65;;;19.00;99.90;;;18.76;87.36;97214.41;4956046;28;19996;-48
2022/09/10 09:26:08;;;;;;;0.80;0.50;;;19.10;99.90;;;18.56;87.46;97218.53;4958429;28;20037;-48
2022/09/10 09:29:00;;;;;;;3.53;0.90;;;19.00;99.90;;;18.56;85.94;97217.69;4969011;28;20486;-48
2022/09/10 09:31:33;;;;;;;3.20;1.08;;;18.90;99.90;;;18.38;84.24;97218.03;4968081;28;20577;-48
2022/09/10 09:34:06;;;;;;;3.28;0.75;;;18.90;99.90;;;18.49;84.10;97219.94;4950291;28;20302;-47
2022/09/10 09:36:41;;;;;;;2.58;0.63;;;18.90;99.90;;;18.41;86.89;97217.81;4956992;28;20113;-50
2022/09/10 09:39:23;;;;;;;1.60;0.60;;;18.90;99.90;;;18.33;87.17;97214.00;4970984;28;20475;-49
2022/09/10 09:42:06;;;;;;;2.55;0.98;;;18.80;99.90;;;18.40;83.17;97216.09;4966089;28;20061;-47
2022/09/10 09:44:45;;;;;;;2.38;0.80;;;18.80;99.90;;;18.23;85.80;97221.78;4955132;28;20035;-46
2022/09/10 09:47:11;;;;;;;2.55;0.60;;;18.70;99.90;;;18.05;86.92;97218.59;4956020;28;20045;-49
2022/09/10 09:49:36;;;;;;;4.93;0.90;;;18.60;99.90;;;17.95;82.71;97215.72;4956505;28;20022;-47
2022/09/10 09:52:21;;;;;;;4.07;0.60;;;18.40;99.90;;;18.02;83.72;97219.69;4971578;28;20081;-49
2022/09/10 09:55:03;;;;;;;2.03;0.75;;;18.40;99.90;;;18.04;88.04;97216.91;4975618;28;20076;-45
2022/09/10 09:57:29;;;;;;;1.90;0.60;;;18.40;99.90;;;18.03;83.94;97215.19;4939153;28;20323;-46
2022/09/10 09:59:54;;;;;;;2.63;0.75;;;18.40;99.90;;;18.06;85.78;97213.16;4965191;28;20038;-46
2022/09/10 10:02:25;;;;;;;2.33;0.73;;;18.50;99.90;;;18.13;84.71;97217.09;4962145;28;20489;-45
2022/09/10 10:05:04;;;;;;;2.97;0.90;;;18.50;99.90;;;18.34;84.42;97213.88;4961719;28;20030;-47
2022/09/10 10:07:33;;;;;;;1.67;0.65;;;18.70;99.90;;;18.37;81.60;97218.97;4962942;28;20546;-45
2022/09/10 10:10:00;;;;;;;2.58;0.50;;;18.80;99.90;;;18.35;80.22;97210.25;4960872;28;21019;-45
2022/09/10 10:12:30;;;;;;;3.38;0.60;;;18.80;99.90;;;18.22;81.25;97220.94;4955560;28;20287;-46
2022/09/10 10:14:57;;;;;;;2.30;0.60;;;18.70;99.90;;;18.27;87.68;97217.97;4970629;28;20034;-47
2022/09/10 10:17:35;;;;;;;2.42;0.63;;;18.60;99.90;;;18.07;82.72;97216.66;4960302;28;20037;-47
2022/09/10 10:20:09;;;;;;;2.78;0.70;;;18.50;99.90;;;18.07;87.77;97212.22;4971167;28;20069;-50
2022/09/10 10:22:38;;;;;;;2.13;0.57;;;18.50;99.90;;;18.09;85.29;97212.09;4975100;28;20026;-49
2022/09/10 10:25:39;;;;;;;1.67;0.50;;;18.50;99.90;;;18.25;84.84;97209.19;4964113;28;20026;-49
2022/09/10 10:28:24;;;;;;;5.03;0.65;;;18.60;99.90;;;18.24;83.73;97203.00;4975579;28;20045;-50
2022/09/10 10:30:56;;;;;;;0.93;0.40;;;18.70;99.90;;;18.41;86.13;97196.47;4976985;28;20113;-48